createdAt,value
2018-08-12T00:00:52.073Z,18.20
2018-08-12T00:03:22.759Z,18.20
2018-08-12T00:05:51.134Z,18.10
2018-08-12T00:08:19.718Z,18.00
2018-08-12T00:10:48.236Z,17.90
2018-08-12T00:13:16.739Z,17.80
2018-08-12T00:15:45.384Z,17.90
2018-08-12T00:18:13.881Z,17.90
2018-08-12T00:20:42.372Z,17.90
2018-08-12T00:23:10.893Z,17.90
2018-08-12T00:25:39.323Z,17.90
2018-08-12T00:28:07.754Z,17.90
2018-08-12T00:30:36.118Z,17.80
2018-08-12T00:33:04.637Z,17.80
2018-08-12T00:35:33.337Z,17.80
2018-08-12T00:38:01.802Z,17.80
2018-08-12T00:40:30.256Z,17.70
2018-08-12T00:42:58.632Z,17.70
2018-08-12T00:45:27.086Z,17.70
2018-08-12T00:47:55.554Z,17.70
2018-08-12T00:50:23.961Z,17.60
2018-08-12T00:52:52.367Z,17.50
2018-08-12T00:55:20.891Z,17.50
2018-08-12T00:57:49.518Z,17.50
2018-08-12T01:00:20.086Z,17.50
2018-08-12T01:02:48.681Z,17.50
2018-08-12T01:05:18.031Z,17.40
2018-08-12T01:07:47.576Z,17.40
2018-08-12T01:10:16.534Z,17.30
2018-08-12T01:12:45.261Z,17.30
2018-08-12T01:15:16.964Z,17.30
2018-08-12T01:17:45.756Z,17.20
2018-08-12T01:20:16.851Z,17.20
2018-08-12T01:22:45.299Z,17.20
2018-08-12T01:25:13.851Z,17.20
2018-08-12T01:27:42.273Z,17.20
2018-08-12T01:30:13.530Z,17.20
2018-08-12T01:32:42.617Z,17.10
2018-08-12T01:35:12.095Z,17.10
2018-08-12T01:37:41.175Z,17.00
2018-08-12T01:40:11.587Z,17.00
2018-08-12T01:42:40.741Z,17.00
2018-08-12T01:45:10.613Z,17.00
2018-08-12T01:47:39.018Z,16.80
2018-08-12T01:50:08.330Z,16.90
2018-08-12T01:52:36.695Z,16.90
2018-08-12T01:55:05.477Z,16.80
2018-08-12T01:57:34.042Z,16.70
2018-08-12T02:00:02.748Z,16.60
2018-08-12T02:02:31.191Z,16.60
2018-08-12T02:04:59.640Z,16.50
2018-08-12T02:07:28.987Z,16.60
2018-08-12T02:09:57.399Z,16.70
2018-08-12T02:12:25.788Z,16.80
2018-08-12T02:14:54.331Z,16.80
2018-08-12T02:17:22.702Z,16.80
2018-08-12T02:19:51.089Z,16.80
2018-08-12T02:22:19.514Z,16.80
2018-08-12T02:24:47.890Z,16.80
2018-08-12T02:27:16.234Z,16.70
2018-08-12T02:29:44.789Z,16.70
2018-08-12T02:32:13.159Z,16.70
2018-08-12T02:34:41.856Z,16.50
2018-08-12T02:37:10.277Z,16.40
2018-08-12T02:39:38.823Z,16.30
2018-08-12T02:42:07.234Z,16.40
2018-08-12T02:44:35.628Z,16.40
2018-08-12T02:47:04.264Z,16.50
2018-08-12T02:49:32.635Z,16.50
2018-08-12T02:52:01.096Z,16.50
2018-08-12T02:54:29.527Z,16.40
2018-08-12T02:56:57.938Z,16.20
2018-08-12T02:59:26.465Z,15.80
2018-08-12T03:01:54.859Z,15.90
2018-08-12T03:04:23.308Z,15.90
2018-08-12T03:06:51.751Z,15.90
2018-08-12T03:09:20.086Z,15.90
2018-08-12T03:11:48.479Z,15.80
2018-08-12T03:14:16.928Z,15.70
2018-08-12T03:16:45.365Z,15.80
2018-08-12T03:19:13.791Z,15.70
2018-08-12T03:21:42.315Z,15.40
2018-08-12T03:24:10.763Z,15.60
2018-08-12T03:26:39.118Z,15.70
2018-08-12T03:29:07.531Z,15.80
2018-08-12T03:31:36.008Z,15.50
2018-08-12T03:34:04.443Z,15.60
2018-08-12T03:36:32.821Z,15.60
2018-08-12T03:39:01.351Z,15.80
2018-08-12T03:41:29.768Z,15.70
2018-08-12T03:43:58.229Z,15.70
2018-08-12T03:46:26.662Z,15.80
2018-08-12T03:48:55.138Z,15.70
2018-08-12T03:51:23.566Z,15.70
2018-08-12T03:53:52.035Z,15.60
2018-08-12T03:56:20.540Z,15.60
2018-08-12T03:58:48.949Z,15.50
2018-08-12T04:01:17.479Z,15.60
2018-08-12T04:03:45.855Z,15.60
2018-08-12T04:06:14.366Z,15.50
2018-08-12T04:08:42.790Z,15.60
2018-08-12T04:11:11.160Z,15.40
2018-08-12T04:13:39.785Z,15.20
2018-08-12T04:16:08.276Z,15.30
2018-08-12T04:18:36.690Z,14.90
2018-08-12T04:21:05.100Z,15.10
2018-08-12T04:23:33.433Z,15.20
2018-08-12T04:26:01.892Z,15.30
2018-08-12T04:28:30.267Z,15.40
2018-08-12T04:30:58.848Z,15.60
2018-08-12T04:33:27.268Z,15.80
2018-08-12T04:35:55.915Z,16.00
2018-08-12T04:38:24.327Z,15.80
2018-08-12T04:40:52.837Z,15.90
2018-08-12T04:43:21.253Z,16.00
2018-08-12T04:45:49.706Z,16.10
2018-08-12T04:48:18.088Z,16.20
2018-08-12T04:50:47.274Z,16.20
2018-08-12T04:53:15.709Z,16.60
2018-08-12T04:55:44.199Z,16.70
2018-08-12T04:58:12.673Z,16.80
2018-08-12T05:00:41.241Z,16.90
2018-08-12T05:03:09.673Z,16.90
2018-08-12T05:05:38.064Z,16.80
2018-08-12T05:08:06.461Z,16.90
2018-08-12T05:10:34.895Z,16.80
2018-08-12T05:13:03.331Z,16.80
2018-08-12T05:15:31.762Z,16.70
2018-08-12T05:18:00.168Z,16.30
2018-08-12T05:20:28.689Z,16.60
2018-08-12T05:22:57.197Z,16.70
2018-08-12T05:25:25.955Z,16.80
2018-08-12T05:27:54.397Z,16.70
2018-08-12T05:30:22.807Z,16.80
2018-08-12T05:32:51.193Z,17.00
2018-08-12T05:35:19.624Z,17.00
2018-08-12T05:37:47.973Z,17.30
2018-08-12T05:40:16.445Z,17.40
2018-08-12T05:42:44.862Z,17.60
2018-08-12T05:45:13.241Z,17.50
2018-08-12T05:47:41.684Z,17.40
2018-08-12T05:50:10.871Z,17.40
2018-08-12T05:52:39.458Z,17.50
2018-08-12T05:55:08.534Z,17.70
2018-08-12T05:57:37.066Z,17.90
2018-08-12T06:00:07.219Z,18.00
2018-08-12T06:02:35.635Z,18.10
2018-08-12T06:05:04.737Z,18.20
2018-08-12T06:07:33.331Z,18.30
2018-08-12T06:10:01.739Z,18.50
2018-08-12T06:12:30.484Z,18.60
2018-08-12T06:14:58.849Z,18.70
2018-08-12T06:17:27.350Z,18.60
2018-08-12T06:19:55.861Z,18.80
2018-08-12T06:22:24.283Z,18.90
2018-08-12T06:24:52.803Z,19.00
2018-08-12T06:27:21.252Z,19.10
2018-08-12T06:29:49.877Z,19.20
2018-08-12T06:32:19.076Z,19.10
2018-08-12T06:34:47.485Z,19.30
2018-08-12T06:37:16.000Z,19.60
2018-08-12T06:39:44.473Z,19.80
2018-08-12T06:42:13.079Z,19.90
2018-08-12T06:44:41.468Z,19.90
2018-08-12T06:47:10.151Z,20.00
2018-08-12T06:49:38.575Z,19.80
2018-08-12T06:52:07.008Z,19.70
2018-08-12T06:54:35.391Z,19.80
2018-08-12T06:57:03.900Z,19.80
2018-08-12T06:59:32.446Z,19.80
2018-08-12T07:02:00.922Z,19.90
2018-08-12T07:04:29.351Z,20.20
2018-08-12T07:06:57.836Z,20.10
2018-08-12T07:09:26.209Z,20.30
2018-08-12T07:11:54.785Z,20.60
2018-08-12T07:14:23.283Z,20.60
2018-08-12T07:16:51.810Z,20.50
2018-08-12T07:19:27.715Z,20.70
2018-08-12T07:21:56.497Z,20.80
2018-08-12T07:24:25.019Z,20.90
2018-08-12T07:26:53.438Z,20.80
2018-08-12T07:29:21.857Z,20.80
2018-08-12T07:31:50.323Z,20.80
2018-08-12T07:34:18.796Z,21.00
2018-08-12T07:36:47.255Z,21.20
2018-08-12T07:39:15.784Z,21.20
2018-08-12T07:41:44.195Z,21.30
2018-08-12T07:44:13.010Z,21.40
2018-08-12T07:46:42.628Z,21.20
2018-08-12T07:49:11.256Z,21.20
2018-08-12T07:51:39.658Z,21.30
2018-08-12T07:54:08.068Z,21.40
2018-08-12T07:56:36.669Z,21.50
2018-08-12T07:59:05.095Z,21.90
2018-08-12T08:01:33.527Z,22.00
2018-08-12T08:04:02.959Z,22.00
2018-08-12T08:06:31.489Z,22.10
2018-08-12T08:09:00.078Z,22.30
2018-08-12T08:11:28.469Z,22.40
2018-08-12T08:13:56.851Z,22.50
2018-08-12T08:16:25.382Z,22.60
2018-08-12T08:18:54.316Z,22.70
2018-08-12T08:21:22.725Z,22.60
2018-08-12T08:23:51.274Z,22.70
2018-08-12T08:26:19.670Z,22.70
2018-08-12T08:28:48.236Z,22.80
2018-08-12T08:31:17.854Z,22.70
2018-08-12T08:33:48.091Z,22.90
2018-08-12T08:36:19.433Z,23.00
2018-08-12T08:38:50.217Z,23.00
2018-08-12T08:41:18.637Z,23.00
2018-08-12T08:43:47.414Z,23.10
2018-08-12T08:46:15.898Z,23.10
2018-08-12T08:48:46.166Z,23.20
2018-08-12T08:51:21.245Z,23.40
2018-08-12T08:53:52.731Z,23.40
2018-08-12T08:56:21.244Z,23.70
2018-08-12T08:58:49.683Z,23.70
2018-08-12T09:01:18.303Z,23.80
2018-08-12T09:03:46.845Z,23.70
2018-08-12T09:06:15.431Z,23.70
2018-08-12T09:08:44.163Z,23.70
2018-08-12T09:11:12.536Z,23.70
2018-08-12T09:13:40.900Z,23.60
2018-08-12T09:16:09.379Z,23.60
2018-08-12T09:18:38.034Z,23.60
2018-08-12T09:21:06.531Z,23.70
2018-08-12T09:23:35.110Z,23.80
2018-08-12T09:26:03.573Z,24.10
2018-08-12T09:28:31.965Z,24.00
2018-08-12T09:31:00.451Z,24.20
2018-08-12T09:33:28.832Z,24.20
2018-08-12T09:35:57.412Z,24.10
2018-08-12T09:38:25.932Z,24.10
2018-08-12T09:40:54.503Z,24.00
2018-08-12T09:43:22.929Z,24.00
2018-08-12T09:45:51.646Z,24.20
2018-08-12T09:48:20.159Z,24.00
2018-08-12T09:50:48.869Z,24.00
2018-08-12T09:53:17.497Z,24.20
2018-08-12T09:55:46.000Z,24.00
2018-08-12T09:58:14.394Z,24.20
2018-08-12T10:00:42.941Z,24.30
2018-08-12T10:03:11.589Z,24.30
2018-08-12T10:05:42.521Z,24.50
2018-08-12T10:08:10.994Z,24.40
2018-08-12T10:10:39.529Z,24.60
2018-08-12T10:13:07.946Z,24.60
2018-08-12T10:15:36.413Z,24.50
2018-08-12T10:18:05.382Z,24.30
2018-08-12T10:20:33.829Z,24.40
2018-08-12T10:23:02.254Z,24.60
2018-08-12T10:25:30.659Z,24.60
2018-08-12T10:27:59.151Z,24.50
2018-08-12T10:30:27.703Z,24.40
2018-08-12T10:32:56.121Z,24.40
2018-08-12T10:35:24.590Z,24.50
2018-08-12T10:37:53.158Z,24.60
2018-08-12T10:40:21.871Z,24.30
2018-08-12T10:42:50.832Z,24.20
2018-08-12T10:45:19.216Z,24.50
2018-08-12T10:47:47.762Z,24.60
2018-08-12T10:50:17.900Z,24.50
2018-08-12T10:52:47.407Z,24.40
2018-08-12T10:55:19.270Z,24.20
2018-08-12T10:57:47.742Z,24.20
2018-08-12T11:00:19.721Z,24.00
2018-08-12T11:02:48.499Z,24.10
2018-08-12T11:05:17.553Z,24.00
2018-08-12T11:07:47.959Z,23.90
2018-08-12T11:10:16.443Z,24.00
2018-08-12T11:12:45.156Z,24.00
2018-08-12T11:15:14.222Z,24.20
2018-08-12T11:17:42.634Z,24.40
2018-08-12T11:20:11.166Z,24.50
2018-08-12T11:22:39.646Z,24.50
2018-08-12T11:25:09.719Z,24.50
2018-08-12T11:27:38.114Z,24.50
2018-08-12T11:30:13.411Z,24.60
2018-08-12T11:32:41.943Z,24.60
2018-08-12T11:35:12.092Z,24.70
2018-08-12T11:37:41.240Z,24.70
2018-08-12T11:40:11.065Z,24.70
2018-08-12T11:42:39.541Z,24.70
2018-08-12T11:45:10.424Z,24.90
2018-08-12T11:47:38.925Z,24.90
2018-08-12T11:50:08.643Z,24.70
2018-08-12T11:52:37.164Z,24.50
2018-08-12T11:55:06.991Z,24.50
2018-08-12T11:57:35.392Z,24.50
2018-08-12T12:00:05.325Z,24.30
2018-08-12T12:02:33.739Z,24.20
2018-08-12T12:05:02.183Z,24.40
2018-08-12T12:07:30.652Z,24.40
2018-08-12T12:09:59.146Z,24.50
2018-08-12T12:12:27.693Z,24.50
2018-08-12T12:14:56.176Z,24.50
2018-08-12T12:17:24.900Z,24.40
2018-08-12T12:19:53.550Z,24.50
2018-08-12T12:22:21.978Z,24.50
2018-08-12T12:24:50.361Z,24.40
2018-08-12T12:27:18.735Z,24.70
2018-08-12T12:29:47.192Z,24.80
2018-08-12T12:32:15.753Z,24.70
2018-08-12T12:34:44.138Z,24.70
2018-08-12T12:37:12.640Z,24.70
2018-08-12T12:39:41.016Z,24.90
2018-08-12T12:42:09.472Z,24.80
2018-08-12T12:44:37.989Z,25.00
2018-08-12T12:47:06.394Z,24.90
2018-08-12T12:49:34.921Z,24.80
2018-08-12T12:52:03.505Z,25.00
2018-08-12T12:54:32.015Z,25.20
2018-08-12T12:57:00.569Z,25.30
2018-08-12T12:59:29.000Z,25.20
2018-08-12T13:01:57.420Z,24.90
2018-08-12T13:04:25.854Z,24.80
2018-08-12T13:06:56.264Z,24.70
2018-08-12T13:09:25.410Z,24.60
2018-08-12T13:11:54.020Z,25.00
2018-08-12T13:14:22.602Z,24.90
2018-08-12T13:16:51.000Z,25.00
2018-08-12T13:19:19.336Z,25.00
2018-08-12T13:21:47.945Z,25.00
2018-08-12T13:24:16.438Z,25.00
2018-08-12T13:26:44.904Z,25.30
2018-08-12T13:29:13.350Z,25.50
2018-08-12T13:31:41.742Z,25.50
2018-08-12T13:34:10.084Z,25.40
2018-08-12T13:36:38.579Z,25.80
2018-08-12T13:39:09.654Z,26.00
2018-08-12T13:41:38.068Z,25.80
2018-08-12T13:44:06.552Z,25.60
2018-08-12T13:46:35.035Z,25.60
2018-08-12T13:49:03.531Z,25.80
2018-08-12T13:51:32.191Z,25.50
2018-08-12T13:54:00.609Z,25.40
2018-08-12T13:56:29.277Z,25.70
2018-08-12T13:58:57.730Z,25.40
2018-08-12T14:01:26.241Z,25.60
2018-08-12T14:03:54.649Z,25.80
2018-08-12T14:06:23.064Z,25.80
2018-08-12T14:08:51.454Z,25.70
2018-08-12T14:11:19.974Z,25.70
2018-08-12T14:13:48.379Z,25.80
2018-08-12T14:16:16.774Z,25.90
2018-08-12T14:18:45.202Z,25.80
2018-08-12T14:21:13.977Z,25.90
2018-08-12T14:23:42.435Z,25.90
2018-08-12T14:26:11.027Z,25.80
2018-08-12T14:28:39.429Z,25.70
2018-08-12T14:31:07.827Z,25.60
2018-08-12T14:33:36.241Z,25.40
2018-08-12T14:36:04.652Z,25.30
2018-08-12T14:38:33.032Z,25.30
2018-08-12T14:41:01.424Z,25.40
2018-08-12T14:43:29.896Z,25.50
2018-08-12T14:45:58.342Z,25.70
2018-08-12T14:48:26.871Z,25.60
2018-08-12T14:50:55.285Z,25.50
2018-08-12T14:53:24.455Z,25.60
2018-08-12T14:55:53.021Z,25.60
2018-08-12T14:58:22.115Z,25.50
2018-08-12T15:00:51.418Z,25.50
2018-08-12T15:03:19.839Z,25.40
2018-08-12T15:05:48.282Z,25.40
2018-08-12T15:08:16.962Z,25.40
2018-08-12T15:10:45.342Z,25.60
2018-08-12T15:13:13.729Z,25.60
2018-08-12T15:15:42.303Z,25.70
2018-08-12T15:18:10.717Z,25.70
2018-08-12T15:20:39.466Z,25.90
2018-08-12T15:23:07.900Z,26.00
2018-08-12T15:25:36.316Z,26.10
2018-08-12T15:28:04.836Z,26.10
2018-08-12T15:30:33.351Z,26.20
2018-08-12T15:33:01.879Z,26.30
2018-08-12T15:35:30.356Z,26.20
2018-08-12T15:38:02.541Z,26.10
2018-08-12T15:40:30.936Z,26.20
2018-08-12T15:42:59.374Z,26.40
2018-08-12T15:45:28.427Z,26.40
2018-08-12T15:47:56.989Z,26.20
2018-08-12T15:50:25.433Z,26.00
2018-08-12T15:52:57.306Z,25.90
2018-08-12T15:55:25.951Z,25.80
2018-08-12T15:57:55.516Z,25.70
2018-08-12T16:00:24.099Z,25.70
2018-08-12T16:02:52.529Z,25.70
2018-08-12T16:05:21.351Z,25.70
2018-08-12T16:07:50.064Z,25.80
2018-08-12T16:10:20.748Z,26.00
2018-08-12T16:12:50.367Z,26.00
2018-08-12T16:15:18.816Z,26.00
2018-08-12T16:17:49.621Z,25.90
2018-08-12T16:20:18.006Z,25.80
2018-08-12T16:22:46.415Z,25.70
2018-08-12T16:25:17.690Z,25.70
2018-08-12T16:27:46.120Z,25.70
2018-08-12T16:30:15.918Z,25.70
2018-08-12T16:32:44.405Z,26.00
2018-08-12T16:35:14.194Z,25.90
2018-08-12T16:37:43.427Z,26.10
2018-08-12T16:40:13.542Z,26.10
2018-08-12T16:42:41.941Z,26.10
2018-08-12T16:45:12.276Z,26.10
2018-08-12T16:47:40.716Z,26.00
2018-08-12T16:50:10.106Z,26.00
2018-08-12T16:52:38.886Z,25.90
2018-08-12T16:55:09.426Z,25.90
2018-08-12T16:57:37.936Z,25.90
2018-08-12T17:00:09.627Z,26.00
2018-08-12T17:02:38.072Z,26.10
2018-08-12T17:05:09.616Z,26.10
2018-08-12T17:07:38.305Z,26.00
2018-08-12T17:10:07.532Z,25.90
2018-08-12T17:12:35.966Z,26.00
2018-08-12T17:15:05.653Z,25.80
2018-08-12T17:17:34.046Z,25.90
2018-08-12T17:20:02.714Z,25.70
2018-08-12T17:22:31.159Z,25.80
2018-08-12T17:24:59.599Z,25.90
2018-08-12T17:27:28.382Z,25.80
2018-08-12T17:29:56.878Z,25.80
2018-08-12T17:32:25.396Z,25.90
2018-08-12T17:34:53.815Z,25.80
2018-08-12T17:37:22.201Z,25.80
2018-08-12T17:39:50.674Z,25.80
2018-08-12T17:42:19.385Z,25.90
2018-08-12T17:44:47.866Z,26.00
2018-08-12T17:47:16.588Z,25.90
2018-08-12T17:49:45.003Z,26.00
2018-08-12T17:52:13.410Z,25.90
2018-08-12T17:54:41.879Z,25.80
2018-08-12T17:57:10.914Z,26.00
2018-08-12T17:59:39.350Z,25.90
2018-08-12T18:02:07.874Z,25.80
2018-08-12T18:04:36.239Z,25.70
2018-08-12T18:07:05.115Z,25.70
2018-08-12T18:09:33.628Z,25.60
2018-08-12T18:12:02.295Z,25.50
2018-08-12T18:14:30.717Z,25.60
2018-08-12T18:16:59.129Z,25.50
2018-08-12T18:19:27.764Z,25.40
2018-08-12T18:21:56.189Z,25.30
2018-08-12T18:24:24.689Z,25.20
2018-08-12T18:26:53.342Z,25.20
2018-08-12T18:29:21.966Z,25.10
2018-08-12T18:31:50.431Z,25.00
2018-08-12T18:34:18.834Z,24.90
2018-08-12T18:36:47.742Z,24.90
2018-08-12T18:39:16.192Z,24.80
2018-08-12T18:41:44.606Z,24.80
2018-08-12T18:44:13.049Z,24.70
2018-08-12T18:46:41.457Z,24.70
2018-08-12T18:49:09.895Z,24.70
2018-08-12T18:51:38.423Z,24.70
2018-08-12T18:54:06.901Z,24.60
2018-08-12T18:56:35.319Z,24.50
2018-08-12T18:59:03.878Z,24.50
2018-08-12T19:01:32.437Z,24.40
2018-08-12T19:04:00.910Z,24.40
2018-08-12T19:06:29.270Z,24.40
2018-08-12T19:08:57.695Z,24.40
2018-08-12T19:11:26.177Z,24.30
2018-08-12T19:13:54.558Z,24.20
2018-08-12T19:16:22.983Z,24.10
2018-08-12T19:18:51.527Z,24.10
2018-08-12T19:21:19.941Z,24.00
2018-08-12T19:23:48.477Z,24.00
2018-08-12T19:26:16.969Z,23.90
2018-08-12T19:28:45.403Z,23.90
2018-08-12T19:31:13.765Z,23.80
2018-08-12T19:33:42.278Z,23.80
2018-08-12T19:36:10.738Z,23.80
2018-08-12T19:38:39.193Z,23.70
2018-08-12T19:41:07.723Z,23.70
2018-08-12T19:43:36.178Z,23.70
2018-08-12T19:46:04.712Z,23.60
2018-08-12T19:48:33.094Z,23.60
2018-08-12T19:51:01.519Z,23.60
2018-08-12T19:53:29.955Z,23.50
2018-08-12T19:55:58.376Z,23.40
2018-08-12T19:58:26.805Z,23.40
2018-08-12T20:00:55.292Z,23.40
2018-08-12T20:03:23.784Z,23.40
2018-08-12T20:05:52.356Z,23.30
2018-08-12T20:08:20.670Z,23.30
2018-08-12T20:10:49.133Z,23.30
2018-08-12T20:13:17.524Z,23.20
2018-08-12T20:15:45.894Z,23.20
2018-08-12T20:18:14.336Z,23.10
2018-08-12T20:20:42.942Z,23.00
2018-08-12T20:23:11.316Z,23.00
2018-08-12T20:25:39.966Z,22.90
2018-08-12T20:28:08.377Z,22.90
2018-08-12T20:30:36.843Z,22.80
2018-08-12T20:33:05.511Z,22.70
2018-08-12T20:35:33.971Z,22.70
2018-08-12T20:38:02.379Z,22.70
2018-08-12T20:40:30.995Z,22.70
2018-08-12T20:42:59.765Z,22.70
2018-08-12T20:45:28.274Z,22.70
2018-08-12T20:47:56.727Z,22.70
2018-08-12T20:50:25.309Z,22.70
2018-08-12T20:52:53.825Z,22.70
2018-08-12T20:55:22.477Z,22.60
2018-08-12T20:57:50.870Z,22.60
2018-08-12T21:00:19.343Z,22.50
2018-08-12T21:02:47.731Z,22.50
2018-08-12T21:05:16.153Z,22.50
2018-08-12T21:07:44.506Z,22.50
2018-08-12T21:10:13.330Z,22.50
2018-08-12T21:12:42.901Z,22.50
2018-08-12T21:15:11.464Z,22.50
2018-08-12T21:17:39.835Z,22.40
2018-08-12T21:20:08.430Z,22.30
2018-08-12T21:22:36.785Z,22.30
2018-08-12T21:25:05.552Z,22.20
2018-08-12T21:27:34.069Z,22.20
2018-08-12T21:30:02.480Z,22.10
2018-08-12T21:32:30.898Z,22.10
2018-08-12T21:34:59.316Z,22.10
2018-08-12T21:37:27.751Z,22.10
2018-08-12T21:39:56.209Z,22.10
2018-08-12T21:42:24.561Z,22.10
2018-08-12T21:44:53.009Z,22.10
2018-08-12T21:47:21.800Z,22.00
2018-08-12T21:49:50.274Z,21.90
2018-08-12T21:52:18.695Z,21.90
2018-08-12T21:54:47.065Z,21.90
2018-08-12T21:57:15.460Z,21.70
2018-08-12T21:59:43.933Z,21.70
2018-08-12T22:02:12.398Z,21.70
2018-08-12T22:04:40.851Z,21.60
2018-08-12T22:07:09.299Z,21.70
2018-08-12T22:09:37.717Z,21.70
2018-08-12T22:12:06.135Z,21.70
2018-08-12T22:14:34.552Z,21.60
2018-08-12T22:17:03.028Z,21.60
2018-08-12T22:19:31.566Z,21.50
2018-08-12T22:22:00.010Z,21.50
2018-08-12T22:24:28.544Z,21.40
2018-08-12T22:26:56.931Z,21.40
2018-08-12T22:29:25.337Z,21.30
2018-08-12T22:31:53.973Z,21.30
2018-08-12T22:34:22.449Z,21.30
2018-08-12T22:36:50.865Z,21.20
2018-08-12T22:39:19.318Z,21.20
2018-08-12T22:41:47.902Z,21.20
2018-08-12T22:44:16.412Z,21.10
2018-08-12T22:46:44.802Z,21.10
2018-08-12T22:49:13.222Z,21.10
2018-08-12T22:51:41.789Z,21.00
2018-08-12T22:54:10.181Z,21.00
2018-08-12T22:56:38.562Z,21.00
2018-08-12T22:59:07.024Z,21.00
2018-08-12T23:01:36.227Z,21.00
2018-08-12T23:04:05.167Z,21.00
2018-08-12T23:06:33.578Z,20.90
2018-08-12T23:09:02.008Z,20.90
2018-08-12T23:11:30.428Z,20.90
2018-08-12T23:13:58.813Z,20.70
2018-08-12T23:16:38.592Z,20.70
2018-08-12T23:19:07.043Z,20.80
2018-08-12T23:21:35.393Z,20.80
2018-08-12T23:24:03.822Z,20.80
2018-08-12T23:26:32.231Z,20.70
2018-08-12T23:29:00.656Z,20.60
2018-08-12T23:31:29.170Z,20.60
2018-08-12T23:33:57.574Z,20.60
2018-08-12T23:36:25.970Z,20.60
2018-08-12T23:38:54.379Z,20.60
2018-08-12T23:41:22.808Z,20.40
2018-08-12T23:43:51.214Z,20.40
2018-08-12T23:46:19.592Z,20.50
2018-08-12T23:48:48.046Z,20.40
2018-08-12T23:56:08.809Z,20.30
2018-08-12T23:58:37.205Z,20.30
